createdAt,value
2023-02-03T00:12:50.897Z,76.30
2023-02-03T00:15:24.969Z,76.30
2023-02-03T00:32:48.265Z,75.60
2023-02-03T00:40:14.643Z,75.60
2023-02-03T00:50:14.539Z,74.40
2023-02-03T00:55:14.282Z,75.20
2023-02-03T01:00:13.475Z,75.50
2023-02-03T01:05:20.887Z,75.10
2023-02-03T01:20:36.679Z,74.70
2023-02-03T01:35:37.097Z,74.70
2023-02-03T01:50:34.327Z,75.30
2023-02-03T01:53:08.099Z,75.30
2023-02-03T01:55:38.631Z,75.40
2023-02-03T01:58:11.127Z,75.40
2023-02-03T02:03:10.038Z,75.00
2023-02-03T02:05:49.278Z,75.10
2023-02-03T02:08:22.556Z,75.20
2023-02-03T02:13:21.760Z,75.00
2023-02-03T02:15:56.070Z,74.90
2023-02-03T02:18:40.684Z,74.60
2023-02-03T02:21:32.913Z,74.80
2023-02-03T02:24:36.302Z,74.90
2023-02-03T02:27:13.609Z,74.80
2023-02-03T02:30:15.555Z,93.90
2023-02-03T02:33:00.759Z,74.90
2023-02-03T02:35:43.558Z,74.50
2023-02-03T02:38:21.576Z,74.60
2023-02-03T02:40:55.875Z,74.50
2023-02-03T02:43:30.946Z,74.50
2023-02-03T02:46:04.065Z,74.30
2023-02-03T02:48:39.035Z,74.20
2023-02-03T02:51:10.729Z,74.30
2023-02-03T02:53:43.889Z,74.30
2023-02-03T02:56:15.657Z,74.10
2023-02-03T02:58:48.593Z,74.10
2023-02-03T03:03:47.647Z,92.80
2023-02-03T03:06:21.088Z,74.10
2023-02-03T03:08:53.702Z,73.90
2023-02-03T03:13:54.160Z,74.00
2023-02-03T03:16:25.948Z,73.80
2023-02-03T03:19:00.059Z,74.00
2023-02-03T03:21:33.299Z,74.40
2023-02-03T03:24:06.289Z,73.80
2023-02-03T03:26:39.680Z,73.80
2023-02-03T03:29:14.512Z,73.70
2023-02-03T03:31:43.662Z,73.80
2023-02-03T03:34:15.176Z,73.60
2023-02-03T03:36:47.958Z,73.70
2023-02-03T03:39:24.114Z,73.50
2023-02-03T03:42:00.679Z,73.50
2023-02-03T03:44:34.085Z,73.60
2023-02-03T03:47:10.334Z,73.50
2023-02-03T03:49:42.122Z,73.50
2023-02-03T03:52:12.183Z,73.50
2023-02-03T03:54:42.237Z,73.50
2023-02-03T03:57:15.782Z,73.40
2023-02-03T03:59:47.616Z,73.30
2023-02-03T04:02:18.105Z,73.30
2023-02-03T04:04:49.818Z,73.30
2023-02-03T04:12:24.125Z,73.30
2023-02-03T04:19:50.989Z,73.30
2023-02-03T04:37:11.406Z,73.30
2023-02-03T04:52:02.846Z,72.90
2023-02-03T04:54:32.348Z,72.70
2023-02-03T05:11:54.854Z,92.10
2023-02-03T05:29:15.177Z,73.00
2023-02-03T05:34:11.915Z,92.10
2023-02-03T05:44:29.091Z,72.40
2023-02-03T05:47:00.200Z,72.20
2023-02-03T06:02:02.090Z,72.10
2023-02-03T06:07:54.058Z,72.50
2023-02-03T06:13:11.484Z,72.30
2023-02-03T06:15:44.082Z,73.50
2023-02-03T06:18:26.433Z,71.20
2023-02-03T06:28:26.841Z,73.70
2023-02-03T06:31:19.316Z,73.30
2023-02-03T06:33:57.561Z,74.10
2023-02-03T06:44:00.378Z,72.70
2023-02-03T06:49:00.687Z,72.90
2023-02-03T07:06:29.364Z,72.80
2023-02-03T07:11:29.833Z,73.00
2023-02-03T07:23:54.984Z,72.50
2023-02-03T07:38:58.128Z,72.30
2023-02-03T07:56:20.862Z,71.80
2023-02-03T08:01:18.840Z,71.40
2023-02-03T08:13:44.607Z,70.70
2023-02-03T08:28:43.820Z,70.40
2023-02-03T08:31:13.103Z,70.60
2023-02-03T08:36:11.435Z,70.00
2023-02-03T08:41:18.848Z,69.50
2023-02-03T08:43:51.504Z,69.30
2023-02-03T08:51:18.615Z,68.90
2023-02-03T09:01:16.402Z,68.40
2023-02-03T09:09:22.007Z,69.10
2023-02-03T09:16:51.629Z,68.80
2023-02-03T09:34:17.163Z,67.40
2023-02-03T09:42:13.401Z,67.30
2023-02-03T09:44:48.639Z,67.10
2023-02-03T09:47:21.947Z,67.20
2023-02-03T09:49:53.984Z,67.10
2023-02-03T09:52:24.531Z,67.40
2023-02-03T09:55:00.153Z,67.00
2023-02-03T09:57:30.825Z,68.00
2023-02-03T10:00:00.702Z,69.60
2023-02-03T10:02:42.267Z,69.40
2023-02-03T10:05:21.403Z,90.00
2023-02-03T10:07:59.169Z,67.00
2023-02-03T10:10:38.933Z,67.10
2023-02-03T10:13:20.149Z,66.00
2023-02-03T10:16:17.442Z,68.20
2023-02-03T10:18:50.875Z,66.10
2023-02-03T10:21:32.992Z,65.50
2023-02-03T10:24:02.946Z,87.00
2023-02-03T10:29:05.010Z,64.80
2023-02-03T10:31:36.700Z,64.80
2023-02-03T10:34:12.061Z,65.00
2023-02-03T10:36:54.435Z,65.10
2023-02-03T10:39:33.820Z,70.50
2023-02-03T10:42:04.662Z,65.60
2023-02-03T10:44:41.813Z,65.80
2023-02-03T10:47:29.142Z,65.70
2023-02-03T10:50:06.169Z,66.10
2023-02-03T10:52:39.020Z,66.60
2023-02-03T10:55:09.709Z,66.70
2023-02-03T10:57:40.042Z,67.50
2023-02-03T11:00:23.567Z,67.50
2023-02-03T11:02:58.084Z,67.40
2023-02-03T11:07:56.954Z,67.50
2023-02-03T11:10:35.967Z,68.20
2023-02-03T11:13:21.345Z,68.80
2023-02-03T11:15:59.153Z,69.10
2023-02-03T11:18:49.037Z,69.10
2023-02-03T11:21:20.237Z,69.30
2023-02-03T11:23:55.783Z,68.50
2023-02-03T11:26:28.678Z,68.80
2023-02-03T11:29:00.776Z,69.10
2023-02-03T11:31:31.123Z,69.10
2023-02-03T11:34:03.155Z,70.90
2023-02-03T11:36:33.890Z,68.20
2023-02-03T11:39:27.453Z,68.20
2023-02-03T11:41:56.615Z,68.60
2023-02-03T11:44:29.374Z,68.40
2023-02-03T11:47:02.195Z,67.90
2023-02-03T11:50:12.697Z,67.20
2023-02-03T11:52:55.053Z,67.30
2023-02-03T11:55:35.678Z,67.00
2023-02-03T11:58:19.558Z,67.00
2023-02-03T12:00:56.749Z,68.00
2023-02-03T12:03:51.984Z,67.00
2023-02-03T12:06:34.649Z,66.70
2023-02-03T12:09:14.111Z,66.90
2023-02-03T12:12:09.166Z,66.60
2023-02-03T12:15:12.102Z,66.50
2023-02-03T12:18:01.384Z,66.40
2023-02-03T12:20:42.499Z,66.00
2023-02-03T12:23:22.874Z,65.80
2023-02-03T12:26:06.839Z,65.60
2023-02-03T12:28:51.178Z,65.60
2023-02-03T12:31:29.593Z,66.60
2023-02-03T12:34:07.500Z,65.60
2023-02-03T12:36:42.647Z,65.20
2023-02-03T12:39:20.981Z,66.00
2023-02-03T12:41:56.294Z,65.50
2023-02-03T12:44:32.652Z,66.10
2023-02-03T12:47:09.098Z,65.20
2023-02-03T12:49:45.874Z,68.20
2023-02-03T12:52:22.550Z,64.20
2023-02-03T12:54:58.569Z,64.20
2023-02-03T12:57:32.006Z,64.20
2023-02-03T13:00:10.236Z,64.00
2023-02-03T13:02:49.332Z,64.00
2023-02-03T13:05:24.462Z,63.90
2023-02-03T13:08:00.865Z,63.90
2023-02-03T13:10:37.954Z,63.50
2023-02-03T13:13:10.471Z,63.50
2023-02-03T13:15:47.781Z,63.90
2023-02-03T13:18:26.753Z,63.50
2023-02-03T13:23:26.070Z,63.00
2023-02-03T13:26:20.247Z,63.00
2023-02-03T13:29:09.581Z,63.00
2023-02-03T13:31:51.338Z,63.00
2023-02-03T13:35:01.064Z,63.50
2023-02-03T13:38:01.223Z,63.80
2023-02-03T13:40:47.748Z,63.60
2023-02-03T13:43:38.299Z,63.70
2023-02-03T13:46:22.912Z,64.50
2023-02-03T13:48:54.148Z,63.70
2023-02-03T13:51:34.181Z,63.70
2023-02-03T13:54:05.891Z,63.90
2023-02-03T13:59:35.418Z,63.70
2023-02-03T14:02:49.323Z,63.80
2023-02-03T14:05:45.402Z,64.00
2023-02-03T14:08:53.513Z,63.70
2023-02-03T14:11:46.844Z,84.80
2023-02-03T14:14:56.804Z,63.50
2023-02-03T14:18:00.719Z,63.60
2023-02-03T14:20:51.554Z,63.70
2023-02-03T14:23:26.372Z,63.70
2023-02-03T14:25:58.623Z,64.40
2023-02-03T14:28:33.201Z,67.70
2023-02-03T14:31:12.793Z,63.70
2023-02-03T14:34:14.873Z,63.90
2023-02-03T14:36:55.639Z,63.70
2023-02-03T14:40:10.492Z,63.60
2023-02-03T14:43:24.038Z,63.90
2023-02-03T14:46:24.546Z,63.70
2023-02-03T14:49:33.207Z,63.80
2023-02-03T14:52:27.488Z,64.10
2023-02-03T14:55:18.775Z,63.90
2023-02-03T14:57:50.870Z,64.10
2023-02-03T15:00:32.155Z,84.80
2023-02-03T15:03:25.692Z,64.70
2023-02-03T15:05:57.488Z,64.20
2023-02-03T15:08:44.212Z,64.20
2023-02-03T15:11:34.697Z,64.30
2023-02-03T15:14:24.275Z,64.20
2023-02-03T15:16:56.812Z,64.70
2023-02-03T15:19:29.844Z,64.60
2023-02-03T15:24:42.429Z,64.70
2023-02-03T15:27:23.646Z,64.50
2023-02-03T15:32:25.829Z,64.80
2023-02-03T15:37:29.971Z,64.00
2023-02-03T15:40:05.237Z,64.10
2023-02-03T15:42:37.433Z,64.90
2023-02-03T15:45:13.290Z,65.50
2023-02-03T15:47:47.745Z,63.40
2023-02-03T15:50:31.737Z,63.40
2023-02-03T15:53:07.703Z,63.40
2023-02-03T15:55:40.550Z,63.70
2023-02-03T15:58:18.763Z,64.10
2023-02-03T16:00:50.824Z,64.50
2023-02-03T16:03:22.127Z,64.50
2023-02-03T16:08:35.419Z,90.00
2023-02-03T16:11:23.870Z,65.50
2023-02-03T16:13:52.669Z,86.70
2023-02-03T16:16:24.105Z,65.80
2023-02-03T16:18:54.726Z,65.90
2023-02-03T16:21:32.896Z,66.10
2023-02-03T16:24:01.791Z,66.40
2023-02-03T16:26:32.478Z,66.40
2023-02-03T16:29:36.058Z,87.20
2023-02-03T16:38:03.195Z,68.40
2023-02-03T16:43:36.696Z,69.10
2023-02-03T16:51:40.758Z,70.00
2023-02-03T16:54:28.234Z,70.10
2023-02-03T16:59:28.208Z,70.70
2023-02-03T17:04:27.129Z,70.90
2023-02-03T17:12:08.220Z,72.10
2023-02-03T17:14:37.811Z,71.80
2023-02-03T17:32:26.445Z,71.60
2023-02-03T17:38:15.239Z,71.70
2023-02-03T18:04:53.348Z,72.10
2023-02-03T18:07:44.667Z,72.10
2023-02-03T18:15:10.931Z,91.80
2023-02-03T18:17:48.152Z,72.80
2023-02-03T18:20:17.996Z,72.90
2023-02-03T18:30:20.520Z,73.20
2023-02-03T18:32:51.928Z,73.30
2023-02-03T18:35:21.767Z,73.40
2023-02-03T18:50:41.751Z,74.30
2023-02-03T18:53:39.221Z,75.20
2023-02-03T18:56:14.502Z,74.60
2023-02-03T19:06:11.916Z,75.30
2023-02-03T19:23:34.166Z,75.40
2023-02-03T19:31:08.295Z,76.20
2023-02-03T19:36:07.228Z,77.40
2023-02-03T19:38:42.252Z,77.20
2023-02-03T19:41:17.191Z,77.50
2023-02-03T19:46:29.719Z,78.10
2023-02-03T19:52:00.552Z,78.50
2023-02-03T19:54:33.090Z,78.90
2023-02-03T19:57:08.868Z,80.40
2023-02-03T20:07:17.822Z,79.80
2023-02-03T20:09:48.071Z,80.10
2023-02-03T20:12:38.338Z,80.20
2023-02-03T20:15:07.572Z,83.60
2023-02-03T20:25:02.608Z,81.00
2023-02-03T20:30:08.177Z,81.70
2023-02-03T20:37:39.255Z,82.70
2023-02-03T20:40:19.200Z,82.70
2023-02-03T20:45:18.620Z,82.80
2023-02-03T20:50:31.665Z,83.30
2023-02-03T20:55:32.215Z,83.50
2023-02-03T21:10:48.833Z,83.80
2023-02-03T21:13:22.037Z,83.80
2023-02-03T21:18:40.203Z,83.60
2023-02-03T21:21:14.804Z,83.70
2023-02-03T21:23:54.998Z,86.50
2023-02-03T21:26:35.633Z,84.10
2023-02-03T21:31:41.095Z,84.30
2023-02-03T21:34:24.890Z,84.30
2023-02-03T21:39:35.818Z,84.20
2023-02-03T21:42:41.005Z,84.90
2023-02-03T21:45:40.010Z,84.30
2023-02-03T21:48:33.345Z,84.20
2023-02-03T21:51:17.917Z,84.10
2023-02-03T21:53:52.414Z,84.40
2023-02-03T21:56:22.995Z,84.50
2023-02-03T21:58:59.631Z,84.50
2023-02-03T22:06:52.618Z,84.60
2023-02-03T22:09:22.378Z,84.80
2023-02-03T22:14:25.792Z,84.50
2023-02-03T22:22:15.056Z,84.90
2023-02-03T22:29:47.827Z,85.00
2023-02-03T22:32:18.477Z,85.40
2023-02-03T22:44:51.864Z,85.30
2023-02-03T22:47:23.774Z,85.40
2023-02-03T22:49:59.905Z,85.90
2023-02-03T22:52:28.462Z,86.80
2023-02-03T23:00:23.671Z,86.60
2023-02-03T23:10:32.219Z,87.20
2023-02-03T23:13:04.415Z,87.00
2023-02-03T23:16:10.414Z,89.10
2023-02-03T23:23:50.850Z,87.50
2023-02-03T23:31:21.779Z,87.70
2023-02-03T23:46:27.314Z,87.80
2023-02-03T23:56:24.767Z,89.00
2023-02-03T23:58:53.255Z,98.50
